createdAt,value
2016-10-30T00:00:11.292Z,0
2016-10-30T00:01:10.694Z,0
2016-10-30T00:02:11.321Z,0
2016-10-30T00:03:10.704Z,0
2016-10-30T00:04:11.350Z,0
2016-10-30T00:05:11.682Z,0
2016-10-30T00:06:11.071Z,0
2016-10-30T00:07:10.776Z,0
2016-10-30T00:08:11.434Z,0
2016-10-30T00:09:11.126Z,0
2016-10-30T00:10:10.825Z,0
2016-10-30T00:11:10.856Z,0
2016-10-30T00:12:11.489Z,0
2016-10-30T00:13:11.196Z,0
2016-10-30T00:14:11.241Z,0
2016-10-30T00:15:11.235Z,0
2016-10-30T00:16:10.931Z,0
2016-10-30T00:17:11.570Z,0
2016-10-30T00:18:11.595Z,0
2016-10-30T00:19:11.608Z,0
2016-10-30T00:20:11.629Z,0
2016-10-30T00:21:11.013Z,0
2016-10-30T00:22:11.695Z,0
2016-10-30T00:23:11.046Z,0
2016-10-30T00:24:11.396Z,0
2016-10-30T00:25:11.405Z,0
2016-10-30T00:26:11.418Z,0
2016-10-30T00:27:11.457Z,0
2016-10-30T00:28:11.449Z,0
2016-10-30T00:29:11.463Z,0
2016-10-30T00:30:11.805Z,0
2016-10-30T00:31:11.504Z,0
2016-10-30T00:32:11.514Z,0
2016-10-30T00:33:11.527Z,0
2016-10-30T00:34:11.862Z,0
2016-10-30T00:35:11.567Z,0
2016-10-30T00:36:11.271Z,0
2016-10-30T00:37:11.917Z,0
2016-10-30T00:39:11.637Z,0
2016-10-30T00:40:11.652Z,0
2016-10-30T00:41:11.986Z,0
2016-10-30T00:42:11.366Z,0
2016-10-30T00:43:11.702Z,0
2016-10-30T00:44:12.355Z,0
2016-10-30T00:45:11.417Z,0
2016-10-30T00:46:11.444Z,0
2016-10-30T00:47:11.453Z,0
2016-10-30T00:48:11.791Z,0
2016-10-30T00:49:11.799Z,0
2016-10-30T00:50:12.135Z,0
2016-10-30T00:51:12.155Z,0
2016-10-30T00:52:12.178Z,0
2016-10-30T00:53:11.549Z,0
2016-10-30T00:54:12.199Z,0
2016-10-30T00:55:11.908Z,0
2016-10-30T00:56:11.603Z,0
2016-10-30T00:57:11.622Z,0
2016-10-30T00:58:12.280Z,0
2016-10-30T00:59:11.970Z,0
2016-10-30T01:00:11.997Z,0
2016-10-30T01:01:11.708Z,0
2016-10-30T01:02:12.027Z,0
2016-10-30T01:03:12.350Z,0
2016-10-30T01:04:11.740Z,0
2016-10-30T01:05:11.756Z,0
2016-10-30T01:06:12.422Z,0
2016-10-30T01:07:12.104Z,0
2016-10-30T01:08:11.813Z,0
2016-10-30T01:09:12.770Z,0
2016-10-30T01:10:12.465Z,0
2016-10-30T01:11:12.207Z,0
2016-10-30T01:12:12.187Z,0
2016-10-30T01:13:12.200Z,0
2016-10-30T01:14:11.905Z,0
2016-10-30T01:15:12.864Z,0
2016-10-30T01:16:12.882Z,0
2016-10-30T01:17:12.271Z,0
2016-10-30T01:18:11.970Z,0
2016-10-30T01:19:12.617Z,0
2016-10-30T01:20:12.324Z,0
2016-10-30T01:21:12.672Z,0
2016-10-30T01:22:12.994Z,0
2016-10-30T01:23:12.369Z,0
2016-10-30T01:24:12.390Z,0
2016-10-30T01:25:12.085Z,0
2016-10-30T01:26:12.430Z,0
2016-10-30T01:27:12.120Z,0
2016-10-30T01:28:12.765Z,0
2016-10-30T01:29:12.486Z,0
2016-10-30T01:30:12.950Z,0
2016-10-30T01:31:12.495Z,0
2016-10-30T01:32:12.514Z,0
2016-10-30T01:33:12.530Z,0
2016-10-30T01:34:38.218Z,0
2016-10-30T01:35:12.877Z,0
2016-10-30T01:36:12.576Z,0
2016-10-30T01:37:12.277Z,0
2016-10-30T01:38:12.607Z,0
2016-10-30T01:39:12.626Z,0
2016-10-30T01:40:12.640Z,0
2016-10-30T01:41:12.706Z,0
2016-10-30T01:42:12.994Z,0
2016-10-30T01:43:13.329Z,0
2016-10-30T01:44:13.046Z,0
2016-10-30T01:45:12.729Z,0
2016-10-30T01:46:12.426Z,0
2016-10-30T01:47:12.441Z,0
2016-10-30T01:48:12.467Z,0
2016-10-30T01:49:12.800Z,0
2016-10-30T01:50:13.137Z,0
2016-10-30T01:51:13.143Z,0
2016-10-30T01:52:13.157Z,0
2016-10-30T01:53:12.861Z,0
2016-10-30T01:54:12.878Z,0
2016-10-30T01:55:13.208Z,0
2016-10-30T01:56:13.248Z,0
2016-10-30T01:57:13.240Z,0
2016-10-30T01:58:13.585Z,0
2016-10-30T01:59:13.589Z,0
2016-10-30T02:00:12.997Z,0
2016-10-30T02:01:13.307Z,0
2016-10-30T02:02:13.340Z,0
2016-10-30T02:03:12.715Z,0
2016-10-30T02:04:12.733Z,0
2016-10-30T02:05:13.524Z,0
2016-10-30T02:06:13.425Z,0
2016-10-30T02:07:39.082Z,0
2016-10-30T02:08:13.422Z,0
2016-10-30T02:09:13.750Z,0
2016-10-30T02:10:13.137Z,0
2016-10-30T02:11:13.470Z,0
2016-10-30T02:12:13.485Z,0
2016-10-30T02:13:13.185Z,0
2016-10-30T02:14:12.884Z,0
2016-10-30T02:15:13.530Z,0
2016-10-30T02:16:13.552Z,0
2016-10-30T02:17:12.989Z,0
2016-10-30T02:18:13.278Z,0
2016-10-30T02:19:13.296Z,0
2016-10-30T02:20:13.766Z,0
2016-10-30T02:21:13.659Z,0
2016-10-30T02:22:13.681Z,0
2016-10-30T02:23:13.659Z,0
2016-10-30T02:24:13.368Z,0
2016-10-30T02:25:13.719Z,0
2016-10-30T02:26:13.420Z,0
2016-10-30T02:27:13.136Z,0
2016-10-30T02:28:13.432Z,0
2016-10-30T02:29:14.084Z,0
2016-10-30T02:30:13.464Z,0
2016-10-30T02:31:13.515Z,0
2016-10-30T02:32:13.223Z,0
2016-10-30T02:33:13.833Z,0
2016-10-30T02:34:13.213Z,0
2016-10-30T02:35:13.702Z,0
2016-10-30T02:36:13.594Z,0
2016-10-30T02:37:13.580Z,0
2016-10-30T02:38:13.908Z,0
2016-10-30T02:39:13.608Z,0
2016-10-30T02:40:13.316Z,0
2016-10-30T02:41:13.645Z,0
2016-10-30T02:42:13.986Z,0
2016-10-30T02:43:14.005Z,0
2016-10-30T02:44:14.043Z,0
2016-10-30T02:45:14.025Z,0
2016-10-30T02:46:13.726Z,0
2016-10-30T02:47:14.058Z,0
2016-10-30T02:48:13.442Z,0
2016-10-30T02:49:13.775Z,0
2016-10-30T02:50:14.284Z,0
2016-10-30T02:51:14.436Z,0
2016-10-30T02:52:14.455Z,0
2016-10-30T02:53:14.154Z,0
2016-10-30T02:54:13.861Z,0
2016-10-30T02:55:13.866Z,0
2016-10-30T02:56:14.519Z,0
2016-10-30T02:57:13.900Z,0
2016-10-30T02:58:13.916Z,0
2016-10-30T02:59:13.617Z,0
2016-10-30T03:00:13.965Z,0
2016-10-30T03:01:13.966Z,0
2016-10-30T03:02:13.663Z,0
2016-10-30T03:03:14.313Z,0
2016-10-30T03:04:13.699Z,0
2016-10-30T03:05:14.072Z,0
2016-10-30T03:06:14.675Z,0
2016-10-30T03:07:14.061Z,0
2016-10-30T03:08:14.395Z,0
2016-10-30T03:09:14.418Z,0
2016-10-30T03:10:13.954Z,0
2016-10-30T03:11:14.443Z,0
2016-10-30T03:12:14.467Z,0
2016-10-30T03:13:14.163Z,0
2016-10-30T03:14:14.495Z,0
2016-10-30T03:15:14.192Z,0
2016-10-30T03:16:14.208Z,0
2016-10-30T03:17:13.910Z,0
2016-10-30T03:18:14.283Z,0
2016-10-30T03:19:14.576Z,0
2016-10-30T03:20:14.313Z,0
2016-10-30T03:21:14.289Z,0
2016-10-30T03:22:14.649Z,0
2016-10-30T03:23:14.325Z,0
2016-10-30T03:24:14.655Z,0
2016-10-30T03:25:14.350Z,0
2016-10-30T03:26:14.683Z,0
2016-10-30T03:27:15.019Z,0
2016-10-30T03:28:14.716Z,0
2016-10-30T03:29:14.416Z,0
2016-10-30T03:30:14.582Z,0
2016-10-30T03:31:14.464Z,0
2016-10-30T03:32:14.149Z,0
2016-10-30T03:33:14.796Z,0
2016-10-30T03:34:14.504Z,0
2016-10-30T03:35:14.552Z,0
2016-10-30T03:36:14.850Z,0
2016-10-30T03:37:14.290Z,0
2016-10-30T03:38:14.884Z,0
2016-10-30T03:39:14.912Z,0
2016-10-30T03:40:14.613Z,0
2016-10-30T03:41:14.660Z,0
2016-10-30T03:42:14.977Z,0
2016-10-30T03:43:15.277Z,0
2016-10-30T03:44:14.669Z,0
2016-10-30T03:45:14.835Z,0
2016-10-30T03:46:15.014Z,0
2016-10-30T03:47:14.712Z,0
2016-10-30T03:48:14.731Z,0
2016-10-30T03:49:14.752Z,0
2016-10-30T03:50:14.763Z,0
2016-10-30T03:51:15.412Z,0
2016-10-30T03:52:14.795Z,0
2016-10-30T03:53:14.814Z,0
2016-10-30T03:54:15.466Z,0
2016-10-30T03:55:15.189Z,0
2016-10-30T03:56:15.177Z,0
2016-10-30T03:57:15.201Z,0
2016-10-30T03:58:14.896Z,0
2016-10-30T03:59:14.908Z,0
2016-10-30T04:00:15.074Z,0
2016-10-30T04:01:15.260Z,0
2016-10-30T04:02:14.973Z,0
2016-10-30T04:03:15.293Z,0
2016-10-30T04:04:15.045Z,0
2016-10-30T04:05:15.326Z,0
2016-10-30T04:06:15.334Z,0
2016-10-30T04:07:15.372Z,0
2016-10-30T04:08:15.105Z,0
2016-10-30T04:09:15.402Z,0
2016-10-30T04:10:14.772Z,0
2016-10-30T04:11:15.750Z,0
2016-10-30T04:12:15.761Z,0
2016-10-30T04:13:15.141Z,0
2016-10-30T04:14:15.529Z,0
2016-10-30T04:15:15.483Z,0
2016-10-30T04:16:15.821Z,0
2016-10-30T04:17:15.209Z,0
2016-10-30T04:18:15.226Z,0
2016-10-30T04:19:15.250Z,0
2016-10-30T04:20:15.571Z,0
2016-10-30T04:21:15.293Z,0
2016-10-30T04:22:15.288Z,0
2016-10-30T04:23:14.998Z,0
2016-10-30T04:24:15.331Z,0
2016-10-30T04:25:15.337Z,0
2016-10-30T04:26:15.357Z,0
2016-10-30T04:27:15.687Z,0
2016-10-30T04:28:15.705Z,0
2016-10-30T04:29:15.413Z,0
2016-10-30T04:30:15.753Z,0
2016-10-30T04:31:15.121Z,0
2016-10-30T04:32:15.780Z,0
2016-10-30T04:33:15.809Z,0
2016-10-30T04:34:15.826Z,0
2016-10-30T04:35:15.506Z,0
2016-10-30T04:36:15.522Z,0
2016-10-30T04:37:16.183Z,0
2016-10-30T04:38:15.910Z,0
2016-10-30T04:39:15.893Z,0
2016-10-30T04:40:15.910Z,0
2016-10-30T04:41:15.624Z,0
2016-10-30T04:42:15.630Z,0
2016-10-30T04:43:15.328Z,0
2016-10-30T04:44:15.662Z,0
2016-10-30T04:45:15.512Z,0
2016-10-30T04:46:16.008Z,0
2016-10-30T04:47:15.715Z,0
2016-10-30T04:48:16.064Z,0
2016-10-30T04:49:15.756Z,0
2016-10-30T04:50:15.764Z,0
2016-10-30T04:51:16.096Z,0
2016-10-30T04:52:15.798Z,0
2016-10-30T04:53:15.501Z,0
2016-10-30T04:54:15.832Z,0
2016-10-30T04:55:16.019Z,0
2016-10-30T04:56:15.863Z,0
2016-10-30T04:57:15.888Z,0
2016-10-30T04:58:15.581Z,0
2016-10-30T04:59:16.263Z,0
2016-10-30T05:00:15.928Z,0
2016-10-30T05:01:15.991Z,0
2016-10-30T05:02:16.628Z,0
2016-10-30T05:03:15.985Z,0
2016-10-30T05:04:15.675Z,0
2016-10-30T05:05:16.011Z,0
2016-10-30T05:06:16.360Z,0
2016-10-30T05:07:15.735Z,0
2016-10-30T05:08:16.384Z,0
2016-10-30T05:09:16.396Z,0
2016-10-30T05:10:15.940Z,0
2016-10-30T05:11:16.111Z,0
2016-10-30T05:12:16.132Z,0
2016-10-30T05:13:16.458Z,0
2016-10-30T05:14:16.163Z,0
2016-10-30T05:15:16.507Z,0
2016-10-30T05:16:16.514Z,0
2016-10-30T05:17:16.211Z,0
2016-10-30T05:18:16.246Z,0
2016-10-30T05:19:16.244Z,0
2016-10-30T05:20:16.449Z,0
2016-10-30T05:21:16.594Z,0
2016-10-30T05:22:16.632Z,0
2016-10-30T05:23:16.626Z,0
2016-10-30T05:24:16.020Z,0
2016-10-30T05:25:16.674Z,0
2016-10-30T05:26:16.369Z,0
2016-10-30T05:27:16.391Z,0
2016-10-30T05:28:16.440Z,0
2016-10-30T05:29:16.414Z,0
2016-10-30T05:30:16.941Z,0
2016-10-30T05:32:16.471Z,0
2016-10-30T05:33:16.520Z,0
2016-10-30T05:34:16.187Z,0
2016-10-30T05:35:16.662Z,0
2016-10-30T05:36:16.842Z,0
2016-10-30T05:37:16.545Z,0
2016-10-30T05:38:16.570Z,0
2016-10-30T05:39:16.622Z,0
2016-10-30T05:40:16.280Z,0
2016-10-30T05:41:16.301Z,4
2016-10-30T05:42:16.635Z,4
2016-10-30T05:43:16.696Z,0
2016-10-30T05:44:16.976Z,0
2016-10-30T05:45:17.309Z,0
2016-10-30T05:46:17.326Z,4
2016-10-30T05:47:31.920Z,4
2016-10-30T05:48:16.736Z,4
2016-10-30T05:49:17.069Z,0
2016-10-30T05:50:16.772Z,4
2016-10-30T05:51:17.091Z,4
2016-10-30T05:52:16.819Z,4
2016-10-30T05:53:16.811Z,4
2016-10-30T05:54:16.825Z,8
2016-10-30T05:55:16.849Z,4
2016-10-30T05:56:16.861Z,4
2016-10-30T05:57:17.193Z,8
2016-10-30T05:58:17.210Z,8
2016-10-30T05:59:16.914Z,4
2016-10-30T06:00:16.928Z,8
2016-10-30T06:01:17.264Z,8
2016-10-30T06:02:17.285Z,8
2016-10-30T06:03:16.982Z,12
2016-10-30T06:04:17.627Z,12
2016-10-30T06:05:17.165Z,12
2016-10-30T06:06:17.036Z,12
2016-10-30T06:07:17.358Z,12
2016-10-30T06:08:17.060Z,12
2016-10-30T06:09:16.775Z,16
2016-10-30T06:10:17.425Z,16
2016-10-30T06:11:16.792Z,16
2016-10-30T06:12:17.442Z,20
2016-10-30T06:13:17.136Z,16
2016-10-30T06:14:17.167Z,20
2016-10-30T06:15:17.959Z,20
2016-10-30T06:16:17.503Z,20
2016-10-30T06:17:17.551Z,24
2016-10-30T06:18:17.548Z,24
2016-10-30T06:19:17.241Z,28
2016-10-30T06:20:17.565Z,28
2016-10-30T06:21:17.294Z,32
2016-10-30T06:22:17.609Z,32
2016-10-30T06:23:17.305Z,36
2016-10-30T06:24:17.323Z,36
2016-10-30T06:25:17.506Z,40
2016-10-30T06:26:17.389Z,36
2016-10-30T06:27:18.026Z,44
2016-10-30T06:28:17.075Z,44
2016-10-30T06:29:17.088Z,48
2016-10-30T06:30:17.888Z,48
2016-10-30T06:31:17.117Z,52
2016-10-30T06:32:18.084Z,52
2016-10-30T06:33:17.470Z,56
2016-10-30T06:34:17.490Z,56
2016-10-30T06:35:17.193Z,60
2016-10-30T06:36:17.517Z,64
2016-10-30T06:37:17.541Z,68
2016-10-30T06:38:18.194Z,68
2016-10-30T06:39:17.895Z,68
2016-10-30T06:40:17.732Z,64
2016-10-30T06:41:17.918Z,64
2016-10-30T06:42:18.258Z,64
2016-10-30T06:43:17.715Z,64
2016-10-30T06:44:17.969Z,68
2016-10-30T06:45:18.017Z,72
2016-10-30T06:46:18.018Z,76
2016-10-30T06:47:17.724Z,76
2016-10-30T06:48:17.406Z,80
2016-10-30T06:49:18.048Z,88
2016-10-30T06:50:18.085Z,88
2016-10-30T06:51:18.080Z,92
2016-10-30T06:52:18.102Z,92
2016-10-30T06:53:18.519Z,96
2016-10-30T06:54:18.133Z,100
2016-10-30T06:55:18.184Z,100
2016-10-30T06:56:17.568Z,92
2016-10-30T06:57:17.863Z,92
2016-10-30T06:58:17.880Z,92
2016-10-30T06:59:17.585Z,96
2016-10-30T07:00:18.551Z,96
2016-10-30T07:01:17.928Z,100
2016-10-30T07:02:17.955Z,92
2016-10-30T07:03:17.959Z,92
2016-10-30T07:04:18.616Z,88
2016-10-30T07:05:18.322Z,92
2016-10-30T07:06:17.703Z,96
2016-10-30T07:07:18.031Z,96
2016-10-30T07:08:18.052Z,96
2016-10-30T07:09:18.074Z,96
2016-10-30T07:10:18.075Z,96
2016-10-30T07:11:18.409Z,100
2016-10-30T07:12:18.443Z,100
2016-10-30T07:13:18.137Z,108
2016-10-30T07:14:18.177Z,120
2016-10-30T07:15:17.846Z,128
2016-10-30T07:16:18.201Z,136
2016-10-30T07:17:18.208Z,140
2016-10-30T07:18:18.528Z,140
2016-10-30T07:19:18.536Z,140
2016-10-30T07:20:18.577Z,136
2016-10-30T07:21:18.281Z,136
2016-10-30T07:22:18.271Z,132
2016-10-30T07:23:18.293Z,136
2016-10-30T07:24:18.624Z,140
2016-10-30T07:25:18.325Z,148
2016-10-30T07:26:18.361Z,164
2016-10-30T07:27:18.357Z,176
2016-10-30T07:28:18.095Z,164
2016-10-30T07:29:18.076Z,168
2016-10-30T07:30:18.728Z,172
2016-10-30T07:31:18.107Z,168
2016-10-30T07:32:18.761Z,168
2016-10-30T07:33:18.455Z,156
2016-10-30T07:34:18.791Z,156
2016-10-30T07:35:18.177Z,156
2016-10-30T07:36:18.506Z,152
2016-10-30T07:37:18.840Z,148
2016-10-30T07:38:19.175Z,152
2016-10-30T07:39:18.561Z,152
2016-10-30T07:40:18.578Z,152
2016-10-30T07:41:18.403Z,152
2016-10-30T07:42:18.927Z,144
2016-10-30T07:43:18.941Z,144
2016-10-30T07:44:18.968Z,144
2016-10-30T07:45:19.028Z,144
2016-10-30T07:46:18.680Z,148
2016-10-30T07:47:18.380Z,148
2016-10-30T07:48:18.708Z,148
2016-10-30T07:49:19.357Z,148
2016-10-30T07:50:18.430Z,140
2016-10-30T07:51:18.784Z,136
2016-10-30T07:52:19.093Z,140
2016-10-30T07:53:18.792Z,144
2016-10-30T07:54:19.440Z,148
2016-10-30T07:55:18.839Z,148
2016-10-30T07:56:19.472Z,148
2016-10-30T07:57:18.584Z,152
2016-10-30T07:58:18.884Z,152
2016-10-30T07:59:18.907Z,156
2016-10-30T08:00:19.232Z,152
2016-10-30T08:01:18.935Z,152
2016-10-30T08:02:18.947Z,152
2016-10-30T08:03:19.611Z,156
2016-10-30T08:04:19.040Z,156
2016-10-30T08:05:19.003Z,164
2016-10-30T08:06:19.800Z,164
2016-10-30T08:07:19.038Z,172
2016-10-30T08:08:19.052Z,172
2016-10-30T08:09:19.391Z,180
2016-10-30T08:10:19.734Z,180
2016-10-30T08:11:19.417Z,184
2016-10-30T08:12:19.129Z,188
2016-10-30T08:13:19.767Z,192
2016-10-30T08:14:19.150Z,196
2016-10-30T08:15:19.840Z,200
2016-10-30T08:16:19.023Z,204
2016-10-30T08:17:19.522Z,204
2016-10-30T08:18:18.908Z,208
2016-10-30T08:19:18.925Z,208
2016-10-30T08:20:18.946Z,208
2016-10-30T08:21:18.963Z,208
2016-10-30T08:22:19.013Z,208
2016-10-30T08:23:18.994Z,208
2016-10-30T08:24:19.645Z,212
2016-10-30T08:25:19.667Z,212
2016-10-30T08:26:20.019Z,212
2016-10-30T08:27:19.072Z,212
2016-10-30T08:28:19.078Z,212
2016-10-30T08:29:19.729Z,212
2016-10-30T08:30:19.775Z,216
2016-10-30T08:31:19.455Z,216
2016-10-30T08:32:19.468Z,220
2016-10-30T08:33:19.821Z,216
2016-10-30T08:34:19.819Z,212
2016-10-30T08:35:19.835Z,216
2016-10-30T08:36:19.689Z,216
2016-10-30T08:37:19.576Z,228
2016-10-30T08:38:19.889Z,236
2016-10-30T08:39:19.903Z,244
2016-10-30T08:40:19.922Z,244
2016-10-30T08:41:19.312Z,248
2016-10-30T08:42:19.645Z,252
2016-10-30T08:43:19.661Z,264
2016-10-30T08:44:19.998Z,268
2016-10-30T08:45:19.377Z,272
2016-10-30T08:46:20.033Z,264
2016-10-30T08:47:20.364Z,260
2016-10-30T08:48:20.063Z,264
2016-10-30T08:49:19.765Z,260
2016-10-30T08:50:20.096Z,264
2016-10-30T08:51:20.117Z,264
2016-10-30T08:52:20.454Z,268
2016-10-30T08:53:19.547Z,268
2016-10-30T08:54:19.870Z,272
2016-10-30T08:55:20.189Z,272
2016-10-30T08:56:19.575Z,272
2016-10-30T08:57:20.543Z,272
2016-10-30T08:58:19.972Z,276
2016-10-30T08:59:20.038Z,276
2016-10-30T09:00:19.972Z,272
2016-10-30T09:01:19.666Z,272
2016-10-30T09:02:19.682Z,276
2016-10-30T09:03:20.012Z,276
2016-10-30T09:04:19.719Z,280
2016-10-30T09:05:20.368Z,284
2016-10-30T09:06:20.445Z,288
2016-10-30T09:07:20.088Z,292
2016-10-30T09:08:20.142Z,292
2016-10-30T09:09:19.837Z,288
2016-10-30T09:10:20.137Z,284
2016-10-30T09:11:19.845Z,292
2016-10-30T09:12:20.207Z,296
2016-10-30T09:13:20.512Z,300
2016-10-30T09:14:19.893Z,300
2016-10-30T09:15:20.558Z,296
2016-10-30T09:16:19.932Z,308
2016-10-30T09:17:20.582Z,344
2016-10-30T09:18:20.917Z,396
2016-10-30T09:19:20.618Z,464
2016-10-30T09:20:20.951Z,524
2016-10-30T09:21:20.173Z,608
2016-10-30T09:22:20.683Z,1172
2016-10-30T09:23:20.065Z,1052
2016-10-30T09:24:20.740Z,744
2016-10-30T09:25:20.761Z,616
2016-10-30T09:26:20.428Z,544
2016-10-30T09:27:20.444Z,488
2016-10-30T09:28:20.870Z,452
2016-10-30T09:29:20.492Z,420
2016-10-30T09:30:21.128Z,416
2016-10-30T09:31:20.670Z,420
2016-10-30T09:32:20.222Z,440
2016-10-30T09:33:20.557Z,460
2016-10-30T09:34:20.893Z,472
2016-10-30T09:35:20.907Z,480
2016-10-30T09:36:20.613Z,492
2016-10-30T09:37:20.964Z,504
2016-10-30T09:38:35.540Z,508
2016-10-30T09:39:20.714Z,512
2016-10-30T09:40:20.694Z,524
2016-10-30T09:41:21.515Z,528
2016-10-30T09:42:21.359Z,536
2016-10-30T09:43:21.064Z,544
2016-10-30T09:44:20.445Z,556
2016-10-30T09:45:20.472Z,576
2016-10-30T09:46:21.139Z,600
2016-10-30T09:47:20.822Z,616
2016-10-30T09:48:20.527Z,632
2016-10-30T09:49:21.170Z,652
2016-10-30T09:50:21.189Z,720
2016-10-30T09:51:21.674Z,848
2016-10-30T09:52:20.918Z,880
2016-10-30T09:53:21.252Z,996
2016-10-30T09:54:20.643Z,944
2016-10-30T09:55:20.969Z,1112
2016-10-30T09:56:20.996Z,872
2016-10-30T09:57:21.323Z,2004
2016-10-30T09:58:21.347Z,808
2016-10-30T09:59:21.385Z,1036
2016-10-30T10:00:21.404Z,1448
2016-10-30T10:01:21.402Z,2148
2016-10-30T10:02:21.418Z,1204
2016-10-30T10:03:21.126Z,2224
2016-10-30T10:04:20.862Z,1804
2016-10-30T10:05:21.161Z,1524
2016-10-30T10:06:21.822Z,2064
2016-10-30T10:07:21.468Z,1432
2016-10-30T10:08:21.220Z,1228
2016-10-30T10:09:21.589Z,1172
2016-10-30T10:10:21.256Z,1428
2016-10-30T10:11:21.282Z,1084
2016-10-30T10:12:21.617Z,896
2016-10-30T10:13:21.636Z,820
2016-10-30T10:14:21.648Z,724
2016-10-30T10:15:21.359Z,712
2016-10-30T10:16:21.378Z,676
2016-10-30T10:17:21.717Z,1232
2016-10-30T10:18:21.129Z,1168
2016-10-30T10:19:21.126Z,1216
2016-10-30T10:20:21.150Z,1208
2016-10-30T10:21:21.482Z,2008
2016-10-30T10:22:21.185Z,1836
2016-10-30T10:23:22.158Z,1764
2016-10-30T10:24:21.242Z,1896
2016-10-30T10:25:21.874Z,2036
2016-10-30T10:26:21.269Z,2088
2016-10-30T10:27:21.920Z,1856
2016-10-30T10:28:21.622Z,1868
2016-10-30T10:29:21.342Z,1944
2016-10-30T10:30:21.983Z,1856
2016-10-30T10:31:22.141Z,1756
2016-10-30T10:32:22.019Z,1736
2016-10-30T10:33:21.421Z,1872
2016-10-30T10:34:21.759Z,1872
2016-10-30T10:35:21.449Z,1860
2016-10-30T10:36:21.787Z,1736
2016-10-30T10:37:22.479Z,1780
2016-10-30T10:38:21.514Z,1752
2016-10-30T10:39:21.850Z,1736
2016-10-30T10:40:21.875Z,1728
2016-10-30T10:41:21.889Z,1708
2016-10-30T10:42:21.923Z,1856
2016-10-30T10:43:22.258Z,2076
2016-10-30T10:44:21.639Z,2212
2016-10-30T10:45:21.985Z,1416
2016-10-30T10:46:21.687Z,1756
2016-10-30T10:47:22.334Z,1636
2016-10-30T10:48:22.046Z,1832
2016-10-30T10:49:22.089Z,2076
2016-10-30T10:50:22.087Z,1424
2016-10-30T10:51:22.419Z,1316
2016-10-30T10:52:22.447Z,736
2016-10-30T10:53:22.157Z,756
2016-10-30T10:54:22.494Z,1016
2016-10-30T10:55:22.546Z,1572
2016-10-30T10:56:22.569Z,1416
2016-10-30T10:57:22.579Z,1432
2016-10-30T10:58:22.282Z,1476
2016-10-30T10:59:21.971Z,1444
2016-10-30T11:00:22.326Z,1464
2016-10-30T11:01:22.333Z,1440
2016-10-30T11:02:22.039Z,1444
2016-10-30T11:03:22.694Z,1424
2016-10-30T11:04:22.436Z,1396
2016-10-30T11:05:22.422Z,1380
2016-10-30T11:06:22.446Z,1380
2016-10-30T11:07:22.152Z,1384
2016-10-30T11:08:22.816Z,1356
2016-10-30T11:09:22.191Z,1352
2016-10-30T11:10:22.536Z,1340
2016-10-30T11:11:23.202Z,1336
2016-10-30T11:12:22.574Z,1308
2016-10-30T11:13:22.915Z,1312
2016-10-30T11:14:23.259Z,1324
2016-10-30T11:15:23.278Z,1328
2016-10-30T11:16:22.357Z,1320
2016-10-30T11:17:23.008Z,1300
2016-10-30T11:18:22.715Z,1296
2016-10-30T11:19:22.778Z,1308
2016-10-30T11:20:22.760Z,1312
2016-10-30T11:21:22.787Z,1292
2016-10-30T11:22:22.806Z,1316
2016-10-30T11:23:22.520Z,1304
2016-10-30T11:24:23.177Z,1292
2016-10-30T11:25:23.187Z,1280
2016-10-30T11:26:23.564Z,1280
2016-10-30T11:27:22.602Z,1272
2016-10-30T11:28:22.939Z,1256
2016-10-30T11:29:23.281Z,1244
2016-10-30T11:30:22.987Z,1240
2016-10-30T11:31:23.326Z,1232
2016-10-30T11:32:23.663Z,1216
2016-10-30T11:33:23.369Z,1216
2016-10-30T11:34:23.406Z,1220
2016-10-30T11:35:22.847Z,1220
2016-10-30T11:36:23.756Z,1220
2016-10-30T11:37:23.152Z,1216
2016-10-30T11:38:23.485Z,1204
2016-10-30T11:39:23.195Z,1192
2016-10-30T11:40:23.540Z,1200
2016-10-30T11:41:23.420Z,1180
2016-10-30T11:42:23.587Z,1168
2016-10-30T11:43:23.288Z,1172
2016-10-30T11:44:23.726Z,1208
2016-10-30T11:45:23.675Z,1188
2016-10-30T11:46:23.512Z,1204
2016-10-30T11:47:23.086Z,1172
2016-10-30T11:48:23.402Z,1176
2016-10-30T11:49:23.139Z,1152
2016-10-30T11:50:23.135Z,1152
2016-10-30T11:51:23.795Z,1140
2016-10-30T11:52:23.817Z,1128
2016-10-30T11:53:23.857Z,1116
2016-10-30T11:54:23.550Z,1144
2016-10-30T11:55:23.891Z,1132
2016-10-30T11:56:23.589Z,1136
2016-10-30T11:57:23.614Z,1132
2016-10-30T11:58:23.950Z,1108
2016-10-30T11:59:24.290Z,1096
2016-10-30T12:00:23.708Z,1080
2016-10-30T12:01:23.737Z,1056
2016-10-30T12:02:25.150Z,1084
2016-10-30T12:03:23.775Z,1088
2016-10-30T12:04:23.459Z,1076
2016-10-30T12:05:24.152Z,1064
2016-10-30T12:06:24.532Z,1056
2016-10-30T12:07:24.170Z,1076
2016-10-30T12:08:24.589Z,1044
2016-10-30T12:09:23.896Z,1060
2016-10-30T12:10:23.923Z,1060
2016-10-30T12:11:24.261Z,1052
2016-10-30T12:12:24.422Z,1048
2016-10-30T12:13:24.628Z,1048
2016-10-30T12:14:24.716Z,1048
2016-10-30T12:15:24.379Z,1036
2016-10-30T12:16:23.746Z,1028
2016-10-30T12:17:24.086Z,1060
2016-10-30T12:18:24.119Z,1032
2016-10-30T12:19:24.461Z,1024
2016-10-30T12:20:38.742Z,1020
2016-10-30T12:21:24.819Z,1008
2016-10-30T12:22:24.526Z,1012
2016-10-30T12:23:24.233Z,984
2016-10-30T12:24:24.584Z,976
2016-10-30T12:25:24.600Z,980
2016-10-30T12:26:24.621Z,976
2016-10-30T12:27:24.351Z,968
2016-10-30T12:28:24.360Z,976
2016-10-30T12:29:24.689Z,956
2016-10-30T12:30:24.082Z,952
2016-10-30T12:31:24.462Z,948
2016-10-30T12:32:25.667Z,932
2016-10-30T12:33:25.048Z,924
2016-10-30T12:34:24.498Z,932
2016-10-30T12:35:24.839Z,912
2016-10-30T12:36:25.186Z,928
2016-10-30T12:37:24.599Z,912
2016-10-30T12:38:24.938Z,892
2016-10-30T12:39:24.735Z,892
2016-10-30T12:40:24.328Z,888
2016-10-30T12:41:24.684Z,892
2016-10-30T12:42:25.324Z,896
2016-10-30T12:43:24.719Z,876
2016-10-30T12:44:25.059Z,872
2016-10-30T12:45:25.091Z,876
2016-10-30T12:46:25.116Z,872
2016-10-30T12:47:25.148Z,872
2016-10-30T12:48:25.159Z,868
2016-10-30T12:49:24.894Z,860
2016-10-30T12:50:24.929Z,868
2016-10-30T12:51:25.235Z,864
2016-10-30T12:52:25.258Z,872
2016-10-30T12:53:25.272Z,876
2016-10-30T12:54:24.994Z,876
2016-10-30T12:55:25.639Z,888
2016-10-30T12:56:25.348Z,892
2016-10-30T12:57:25.051Z,912
2016-10-30T12:58:25.227Z,920
2016-10-30T12:59:25.438Z,936
2016-10-30T13:00:25.147Z,924
2016-10-30T13:01:25.785Z,928
2016-10-30T13:02:25.181Z,932
2016-10-30T13:03:25.843Z,932
2016-10-30T13:04:25.540Z,920
2016-10-30T13:05:25.273Z,864
2016-10-30T13:06:25.611Z,804
2016-10-30T13:07:25.616Z,876
2016-10-30T13:08:25.009Z,876
2016-10-30T13:09:25.036Z,740
2016-10-30T13:10:25.685Z,840
2016-10-30T13:11:25.449Z,596
2016-10-30T13:12:25.103Z,624
2016-10-30T13:13:25.445Z,784
2016-10-30T13:14:25.791Z,584
2016-10-30T13:15:25.805Z,752
2016-10-30T13:16:25.835Z,732
2016-10-30T13:17:25.878Z,724
2016-10-30T13:18:25.574Z,728
2016-10-30T13:19:25.602Z,716
2016-10-30T13:20:25.932Z,708
2016-10-30T13:21:25.352Z,692
2016-10-30T13:22:25.982Z,688
2016-10-30T13:23:25.689Z,688
2016-10-30T13:24:25.719Z,684
2016-10-30T13:25:25.934Z,680
2016-10-30T13:26:26.390Z,664
2016-10-30T13:27:26.115Z,660
2016-10-30T13:28:25.833Z,660
2016-10-30T13:29:26.188Z,640
2016-10-30T13:30:26.177Z,644
2016-10-30T13:31:25.888Z,632
2016-10-30T13:32:25.908Z,636
2016-10-30T13:33:26.252Z,628
2016-10-30T13:34:25.681Z,620
2016-10-30T13:35:25.989Z,616
2016-10-30T13:36:25.731Z,608
2016-10-30T13:37:26.665Z,604
2016-10-30T13:38:25.750Z,600
2016-10-30T13:39:26.099Z,596
2016-10-30T13:40:26.113Z,588
2016-10-30T13:41:26.127Z,584
2016-10-30T13:42:26.167Z,580
2016-10-30T13:43:25.859Z,576
2016-10-30T13:44:26.836Z,568
2016-10-30T13:45:26.222Z,564
2016-10-30T13:46:26.588Z,552
2016-10-30T13:47:26.597Z,552
2016-10-30T13:48:26.301Z,540
2016-10-30T13:49:26.324Z,540
2016-10-30T13:50:26.358Z,524
2016-10-30T13:51:26.372Z,524
2016-10-30T13:52:26.397Z,520
2016-10-30T13:53:26.422Z,516
2016-10-30T13:54:26.766Z,516
2016-10-30T13:55:27.127Z,508
2016-10-30T13:56:26.576Z,504
2016-10-30T13:57:27.178Z,504
2016-10-30T13:58:26.561Z,496
2016-10-30T13:59:26.891Z,488
2016-10-30T14:00:26.611Z,484
2016-10-30T14:01:26.615Z,480
2016-10-30T14:02:27.408Z,472
2016-10-30T14:03:26.667Z,464
2016-10-30T14:04:27.023Z,464
2016-10-30T14:05:26.723Z,460
2016-10-30T14:06:27.050Z,456
2016-10-30T14:07:26.598Z,452
2016-10-30T14:08:27.740Z,456
2016-10-30T14:09:27.129Z,452
2016-10-30T14:10:27.099Z,448